Time;durP1;ratioP1;P1;durP2;ratioP2;P2;SDS_P1;SDS_P2;PMS_P1;PMS_P2;Temp;Humidity;BMP_temperature;BMP_pressure;BME280_temperature;BME280_humidity;BME280_pressure;Samples;Min_cycle;Max_cycle;Signal;HPM_P1;HPM_P2
2023/05/17 00:01:45;;;;;;;10.65;0.90;;;15.30;99.90;;;;;;5041994;28;20038;-56
2023/05/17 00:04:14;;;;;;;5.70;1.30;;;15.40;99.90;;;;;;5045813;28;20119;-56
2023/05/17 00:06:41;;;;;;;5.55;0.70;;;15.50;99.90;;;;;;5047452;28;20100;-56
2023/05/17 00:09:09;;;;;;;3.97;0.70;;;15.60;99.90;;;;;;5039499;28;20421;-52
2023/05/17 00:11:37;;;;;;;8.00;1.02;;;15.60;99.90;;;;;;5037169;28;20052;-54
2023/05/17 00:14:04;;;;;;;8.52;1.90;;;15.70;99.90;;;;;;5045733;28;20476;-53
2023/05/17 00:16:32;;;;;;;7.40;1.10;;;15.90;99.90;;;;;;5024901;28;20557;-56
2023/05/17 00:18:59;;;;;;;3.90;1.25;;;16.10;99.90;;;;;;5043974;28;20036;-56
2023/05/17 00:21:27;;;;;;;3.70;0.68;;;16.20;99.90;;;;;;5042160;28;20017;-58
2023/05/17 00:23:55;;;;;;;4.15;0.88;;;16.40;99.90;;;;;;5045656;28;20083;-53
2023/05/17 00:26:22;;;;;;;4.90;1.40;;;16.50;99.90;;;;;;5048141;28;20045;-56
2023/05/17 00:28:50;;;;;;;4.15;0.52;;;16.60;99.90;;;;;;5045905;28;20583;-53
2023/05/17 00:31:17;;;;;;;5.97;0.80;;;16.40;99.90;;;;;;5047944;28;20024;-59
2023/05/17 00:33:46;;;;;;;2.58;0.95;;;16.30;99.90;;;;;;5040120;28;20106;-53
2023/05/17 00:36:13;;;;;;;5.15;0.70;;;16.20;99.90;;;;;;5030050;28;20025;-55
2023/05/17 00:38:41;;;;;;;6.90;1.00;;;16.20;99.90;;;;;;5025928;28;20028;-53
2023/05/17 00:41:09;;;;;;;4.55;0.88;;;16.40;99.90;;;;;;5043927;28;20390;-57
2023/05/17 00:43:36;;;;;;;5.47;0.60;;;16.50;99.90;;;;;;5035369;28;20024;-56
2023/05/17 00:46:04;;;;;;;4.03;0.95;;;16.70;99.90;;;;;;5043242;28;20339;-58
2023/05/17 00:48:31;;;;;;;4.07;0.77;;;16.90;99.90;;;;;;5023863;28;20044;-58
2023/05/17 00:50:59;;;;;;;4.60;1.00;;;17.10;99.90;;;;;;5024471;28;20620;-54
2023/05/17 00:53:28;;;;;;;5.28;0.88;;;17.20;99.90;;;;;;5041295;28;20040;-56
2023/05/17 00:55:56;;;;;;;4.07;0.70;;;17.10;99.90;;;;;;5024426;28;20059;-52
2023/05/17 00:58:24;;;;;;;5.38;1.08;;;17.00;99.90;;;;;;5029117;28;20491;-55
2023/05/17 01:00:52;;;;;;;4.22;1.13;;;16.90;99.90;;;;;;5040459;28;20033;-56
2023/05/17 01:03:21;;;;;;;3.38;0.95;;;16.80;99.90;;;;;;5030510;28;20499;-54
2023/05/17 01:05:50;;;;;;;8.30;0.70;;;16.80;99.90;;;;;;5043689;28;20025;-53
2023/05/17 01:08:18;;;;;;;8.13;1.08;;;16.90;99.90;;;;;;5039820;28;20029;-54
2023/05/17 01:11:11;;;;;;;2.92;0.43;;;17.00;99.90;;;;;;5020620;28;20437;-59
2023/05/17 01:13:57;;;;;;;3.35;2.00;;;17.00;99.90;;;;;;5044254;28;20033;-54
2023/05/17 01:16:30;;;;;;;3.70;0.80;;;16.90;99.90;;;;;;5041951;28;20026;-56
2023/05/17 01:19:11;;;;;;;3.80;0.80;;;16.70;99.90;;;;;;5033848;28;20029;-54
2023/05/17 01:22:03;;;;;;;5.70;0.80;;;16.80;99.90;;;;;;5022909;28;20053;-55
2023/05/17 01:24:40;;;;;;;5.40;0.63;;;16.90;99.90;;;;;;5043964;28;20020;-57
2023/05/17 01:27:09;;;;;;;3.30;0.95;;;17.00;99.90;;;;;;5046619;28;20025;-55
2023/05/17 01:29:39;;;;;;;2.45;0.75;;;16.80;99.90;;;;;;5020852;28;20362;-56
2023/05/17 01:32:08;;;;;;;5.63;0.80;;;16.80;99.90;;;;;;5041925;28;20021;-56
2023/05/17 01:34:35;;;;;;;4.72;0.70;;;16.80;99.90;;;;;;5042037;28;20030;-59
2023/05/17 01:37:03;;;;;;;6.00;0.85;;;17.00;99.90;;;;;;5039964;28;20024;-55
2023/05/17 01:39:30;;;;;;;9.07;0.88;;;17.20;99.90;;;;;;5039861;28;20037;-58
2023/05/17 01:42:08;;;;;;;8.55;1.52;;;17.10;99.90;;;;;;5025008;28;20053;-57
2023/05/17 01:44:50;;;;;;;6.38;1.08;;;17.00;99.90;;;;;;5039563;28;20030;-53
2023/05/17 01:47:32;;;;;;;4.30;1.13;;;16.70;99.90;;;;;;5032545;28;20474;-54
2023/05/17 01:50:01;;;;;;;6.35;0.95;;;16.60;99.90;;;;;;5042523;28;20044;-58
2023/05/17 01:52:46;;;;;;;5.90;0.73;;;16.80;99.90;;;;;;5041460;28;20041;-56
2023/05/17 01:55:30;;;;;;;7.45;1.50;;;17.10;99.90;;;;;;5032039;28;20033;-56
2023/05/17 01:58:01;;;;;;;6.53;0.90;;;17.30;99.90;;;;;;5045432;28;20017;-54
2023/05/17 02:00:29;;;;;;;2.40;0.73;;;17.20;99.90;;;;;;5023791;28;20041;-53
2023/05/17 02:02:57;;;;;;;4.47;0.80;;;17.10;99.90;;;;;;5020588;28;20088;-55
2023/05/17 02:05:24;;;;;;;14.32;1.17;;;17.00;99.90;;;;;;5041457;28;20065;-54
2023/05/17 02:07:52;;;;;;;9.07;1.00;;;16.70;99.90;;;;;;5043143;28;20029;-54
2023/05/17 02:10:19;;;;;;;6.05;1.15;;;16.50;99.90;;;;;;5041102;28;20071;-60
2023/05/17 02:12:47;;;;;;;9.23;0.98;;;16.60;99.90;;;;;;5031075;28;20033;-61
2023/05/17 02:15:15;;;;;;;14.43;1.13;;;16.80;99.90;;;;;;5027159;28;20037;-58
2023/05/17 02:17:43;;;;;;;7.32;0.90;;;16.90;99.90;;;;;;5024790;28;20033;-59
2023/05/17 02:20:11;;;;;;;4.80;0.75;;;17.10;99.90;;;;;;5040072;28;20033;-59
2023/05/17 02:22:39;;;;;;;2.22;0.95;;;17.30;99.90;;;;;;5039048;28;20029;-59
2023/05/17 02:25:07;;;;;;;4.28;0.90;;;17.30;99.90;;;;;;5041766;28;20834;-58
2023/05/17 02:27:35;;;;;;;4.40;1.48;;;17.40;99.90;;;;;;5022494;28;20033;-59
2023/05/17 02:30:04;;;;;;;6.40;0.90;;;17.60;99.90;;;;;;5040581;28;20021;-59
2023/05/17 02:32:32;;;;;;;1.48;0.43;;;17.50;99.90;;;;;;5036235;28;20075;-60
2023/05/17 02:34:59;;;;;;;2.60;0.70;;;17.50;99.90;;;;;;5024275;28;20509;-59
2023/05/17 02:37:27;;;;;;;5.75;0.77;;;17.60;99.90;;;;;;5043552;28;20033;-59
2023/05/17 02:39:54;;;;;;;6.68;0.70;;;17.70;99.90;;;;;;5044145;28;20030;-60
2023/05/17 02:42:22;;;;;;;5.30;0.77;;;17.70;99.90;;;;;;5042801;28;20051;-59
2023/05/17 02:44:51;;;;;;;3.08;0.50;;;17.70;99.50;;;;;;5045408;28;20036;-59
2023/05/17 02:47:22;;;;;;;2.95;0.90;;;17.60;99.70;;;;;;5045135;28;20033;-59
2023/05/17 02:49:49;;;;;;;5.60;0.95;;;17.60;99.90;;;;;;5042367;28;20041;-59
2023/05/17 02:52:17;;;;;;;2.10;0.43;;;17.60;99.90;;;;;;5047333;28;20116;-58
2023/05/17 02:54:46;;;;;;;5.00;0.70;;;17.60;99.90;;;;;;5037315;28;20072;-58
2023/05/17 02:57:14;;;;;;;2.88;0.50;;;17.50;99.90;;;;;;5034128;28;20513;-57
2023/05/17 02:59:41;;;;;;;3.10;0.70;;;17.50;99.90;;;;;;5034484;28;20076;-59
2023/05/17 03:02:09;;;;;;;3.47;0.88;;;17.80;99.90;;;;;;5042740;28;20025;-59
2023/05/17 03:04:36;;;;;;;2.83;0.50;;;17.90;99.90;;;;;;5046340;28;20086;-58
2023/05/17 03:07:04;;;;;;;4.32;1.00;;;17.90;99.90;;;;;;5044472;28;20025;-59
2023/05/17 03:09:32;;;;;;;4.93;0.70;;;18.10;99.90;;;;;;5032167;28;20036;-58
2023/05/17 03:11:59;;;;;;;5.90;0.98;;;17.90;97.90;;;;;;5039831;28;20027;-58
2023/05/17 03:14:27;;;;;;;3.60;0.75;;;17.60;99.10;;;;;;5050681;28;20426;-56
2023/05/17 03:16:54;;;;;;;5.18;0.82;;;17.30;99.90;;;;;;5042498;28;20021;-61
2023/05/17 03:19:22;;;;;;;2.85;0.70;;;17.30;99.90;;;;;;5046253;28;20040;-58
2023/05/17 03:21:49;;;;;;;5.32;0.80;;;17.50;99.90;;;;;;5047632;28;20429;-57
2023/05/17 03:24:17;;;;;;;2.38;0.65;;;17.80;99.90;;;;;;5049241;28;20024;-59
2023/05/17 03:26:44;;;;;;;4.07;0.73;;;17.90;99.50;;;;;;5048541;28;20021;-58
2023/05/17 03:29:12;;;;;;;4.55;0.68;;;17.70;99.40;;;;;;5028428;28;20065;-57
2023/05/17 03:31:39;;;;;;;3.67;1.15;;;17.40;99.90;;;;;;5034479;28;20025;-58
2023/05/17 03:34:07;;;;;;;6.60;1.05;;;17.40;99.90;;;;;;5034757;28;20041;-59
2023/05/17 03:36:39;;;;;;;3.63;0.70;;;17.30;99.90;;;;;;5060994;28;20390;-56
2023/05/17 03:39:06;;;;;;;5.00;0.90;;;17.10;99.90;;;;;;5044708;28;20033;-52
2023/05/17 03:41:34;;;;;;;6.50;1.10;;;17.00;99.90;;;;;;5036207;28;20026;-57
2023/05/17 03:44:01;;;;;;;8.88;1.08;;;17.10;99.90;;;;;;5024757;28;20401;-59
2023/05/17 03:46:29;;;;;;;3.05;0.65;;;17.20;99.90;;;;;;5045627;28;20049;-59
2023/05/17 03:48:56;;;;;;;3.97;0.93;;;17.30;99.90;;;;;;5050478;28;20051;-57
2023/05/17 03:51:24;;;;;;;5.65;0.60;;;17.40;99.90;;;;;;5027654;28;20608;-55
2023/05/17 03:53:58;;;;;;;4.40;0.85;;;17.50;99.90;;;;;;5030275;28;20044;-57
2023/05/17 03:56:26;;;;;;;6.18;1.42;;;17.60;99.90;;;;;;5045683;28;20013;-57
2023/05/17 03:58:53;;;;;;;2.47;0.60;;;17.50;99.90;;;;;;5038928;28;20033;-60
2023/05/17 04:01:21;;;;;;;12.85;1.27;;;17.40;99.90;;;;;;5043498;28;20032;-59
2023/05/17 04:03:48;;;;;;;2.95;0.70;;;17.50;99.90;;;;;;5049330;28;20028;-59
2023/05/17 04:06:16;;;;;;;1.92;0.57;;;17.70;99.90;;;;;;5026629;28;20021;-58
2023/05/17 04:08:43;;;;;;;4.38;1.45;;;17.90;99.90;;;;;;5048781;28;20032;-59
2023/05/17 04:11:13;;;;;;;3.05;1.23;;;17.90;99.90;;;;;;5049335;28;20493;-59
2023/05/17 04:13:42;;;;;;;5.88;0.93;;;17.80;99.90;;;;;;5043329;28;20033;-58
2023/05/17 04:16:10;;;;;;;7.18;1.13;;;17.60;99.90;;;;;;5028433;28;20029;-57
2023/05/17 04:18:38;;;;;;;4.88;0.70;;;17.30;99.90;;;;;;5045340;28;20029;-59
2023/05/17 04:21:06;;;;;;;8.60;1.10;;;17.10;99.90;;;;;;5047759;28;20104;-57
2023/05/17 04:23:34;;;;;;;5.28;1.00;;;16.90;99.90;;;;;;5021480;28;20044;-58
2023/05/17 04:26:03;;;;;;;3.47;0.80;;;16.60;99.90;;;;;;5045069;28;20024;-58
2023/05/17 04:28:30;;;;;;;4.40;1.02;;;16.40;99.90;;;;;;5044143;28;20092;-58
2023/05/17 04:30:57;;;;;;;3.53;0.70;;;16.30;99.90;;;;;;5046878;28;20428;-58
2023/05/17 04:33:25;;;;;;;4.05;1.13;;;16.30;99.90;;;;;;5046926;28;20032;-58
2023/05/17 04:35:55;;;;;;;18.55;2.25;;;16.50;99.90;;;;;;5047095;28;20059;-59
2023/05/17 04:38:23;;;;;;;7.55;1.35;;;16.60;99.90;;;;;;5036167;28;20036;-59
2023/05/17 04:40:50;;;;;;;6.50;0.80;;;16.90;99.90;;;;;;5043891;28;20386;-59
2023/05/17 04:43:18;;;;;;;6.00;1.23;;;17.10;99.90;;;;;;5017345;28;20108;-58
2023/05/17 04:45:45;;;;;;;1.75;0.55;;;17.40;99.90;;;;;;5037309;28;20040;-57
2023/05/17 04:48:14;;;;;;;2.88;0.63;;;17.60;97.00;;;;;;5039313;28;21718;-59
2023/05/17 04:50:45;;;;;;;5.25;0.68;;;17.60;97.70;;;;;;5047802;28;20111;-58
2023/05/17 04:53:14;;;;;;;3.92;0.63;;;17.40;97.60;;;;;;5039269;28;20036;-58
2023/05/17 04:55:42;;;;;;;5.35;0.90;;;17.30;98.80;;;;;;5044718;28;20040;-58
2023/05/17 04:58:09;;;;;;;9.57;1.00;;;17.10;99.30;;;;;;5021535;28;20029;-58
2023/05/17 05:00:37;;;;;;;3.55;0.80;;;17.00;99.90;;;;;;5044568;28;20025;-59
2023/05/17 05:03:04;;;;;;;4.25;1.25;;;16.90;99.90;;;;;;5043813;28;20025;-56
2023/05/17 05:05:32;;;;;;;3.97;0.80;;;16.70;99.90;;;;;;5042603;28;20659;-54
2023/05/17 05:07:59;;;;;;;4.25;0.70;;;16.50;99.90;;;;;;5044387;28;20025;-51
2023/05/17 05:10:29;;;;;;;4.03;1.05;;;16.30;99.90;;;;;;5039442;28;20029;-56
2023/05/17 05:12:57;;;;;;;6.38;1.52;;;16.20;99.90;;;;;;5040513;28;20075;-54
2023/05/17 05:15:24;;;;;;;3.63;0.63;;;16.10;99.90;;;;;;5030226;28;20094;-53
2023/05/17 05:17:52;;;;;;;5.20;0.93;;;16.10;99.90;;;;;;5033582;28;20017;-57
2023/05/17 05:20:20;;;;;;;3.03;0.80;;;16.10;99.90;;;;;;5039330;28;20020;-56
2023/05/17 05:22:47;;;;;;;5.40;0.90;;;16.20;99.90;;;;;;5026902;28;20029;-56
2023/05/17 05:25:14;;;;;;;4.47;1.00;;;16.10;99.90;;;;;;5037926;28;20028;-56
2023/05/17 05:27:42;;;;;;;2.85;0.70;;;16.10;99.90;;;;;;5051248;28;20029;-53
2023/05/17 05:30:10;;;;;;;9.18;1.33;;;16.00;99.90;;;;;;5035108;28;20049;-57
2023/05/17 05:32:37;;;;;;;6.40;0.88;;;16.00;99.90;;;;;;5041567;28;20038;-56
2023/05/17 05:35:05;;;;;;;1.95;0.45;;;16.00;99.90;;;;;;5042625;28;20528;-54
2023/05/17 05:37:33;;;;;;;4.00;0.80;;;16.10;99.90;;;;;;5040621;28;20079;-56
2023/05/17 05:40:01;;;;;;;2.65;0.40;;;16.10;99.90;;;;;;5029986;28;20033;-55
2023/05/17 05:42:29;;;;;;;3.33;0.50;;;16.20;99.90;;;;;;5042344;28;20017;-58
2023/05/17 05:44:56;;;;;;;3.10;0.55;;;16.30;99.90;;;;;;5041807;28;20041;-53
2023/05/17 05:47:24;;;;;;;4.43;0.73;;;16.30;99.90;;;;;;5035609;28;20022;-54
2023/05/17 05:49:52;;;;;;;4.68;0.55;;;16.40;99.90;;;;;;5038779;28;20149;-55
2023/05/17 05:52:23;;;;;;;4.75;1.20;;;16.40;99.90;;;;;;5031636;28;20512;-56
2023/05/17 05:54:51;;;;;;;2.88;0.70;;;16.40;99.90;;;;;;5044851;28;20486;-58
2023/05/17 05:57:18;;;;;;;3.38;0.77;;;16.30;99.90;;;;;;5037117;28;20021;-55
2023/05/17 05:59:45;;;;;;;6.07;0.70;;;16.20;99.90;;;;;;5043602;28;20467;-57
2023/05/17 06:02:13;;;;;;;3.45;1.17;;;16.10;99.90;;;;;;5042638;28;20025;-55
2023/05/17 06:04:40;;;;;;;3.35;1.00;;;15.90;99.90;;;;;;5037609;28;20029;-56
2023/05/17 06:07:08;;;;;;;3.28;0.60;;;15.90;99.90;;;;;;5045915;28;20029;-54
2023/05/17 06:09:35;;;;;;;3.00;0.60;;;15.90;99.90;;;;;;5045168;28;20091;-54
2023/05/17 06:12:03;;;;;;;5.05;0.63;;;15.80;99.90;;;;;;5034990;28;20108;-52
2023/05/17 06:14:30;;;;;;;6.85;0.93;;;15.70;99.90;;;;;;5040817;28;20041;-56
2023/05/17 06:16:58;;;;;;;2.78;0.68;;;15.60;99.90;;;;;;5044281;28;20031;-55
2023/05/17 06:19:25;;;;;;;5.43;0.82;;;15.50;99.90;;;;;;5045192;28;20108;-55
2023/05/17 06:21:53;;;;;;;4.07;0.65;;;15.50;99.90;;;;;;5045698;28;20029;-50
2023/05/17 06:24:20;;;;;;;5.13;1.20;;;15.40;99.90;;;;;;5024283;28;20022;-55
2023/05/17 06:26:48;;;;;;;3.20;1.17;;;15.30;99.90;;;;;;5048408;28;20013;-52
2023/05/17 06:29:15;;;;;;;3.22;0.68;;;15.20;99.90;;;;;;5048284;28;20056;-55
2023/05/17 06:31:42;;;;;;;3.22;0.68;;;15.10;99.90;;;;;;5042164;28;20066;-55
2023/05/17 06:34:10;;;;;;;5.38;0.95;;;14.90;99.90;;;;;;5043220;28;20044;-57
2023/05/17 06:36:37;;;;;;;5.55;1.15;;;14.80;99.90;;;;;;5044008;28;20021;-52
2023/05/17 06:39:05;;;;;;;10.32;2.20;;;14.70;99.90;;;;;;5038178;28;20025;-53
2023/05/17 06:41:33;;;;;;;5.57;1.35;;;14.60;99.90;;;;;;5048454;28;20417;-53
2023/05/17 06:44:01;;;;;;;7.53;0.90;;;14.40;99.90;;;;;;5047944;28;20032;-52
2023/05/17 06:46:28;;;;;;;5.20;1.10;;;14.40;99.90;;;;;;5041811;28;20047;-51
2023/05/17 06:48:56;;;;;;;3.30;1.15;;;14.30;99.90;;;;;;5047328;28;20102;-54
2023/05/17 06:51:24;;;;;;;6.45;0.95;;;14.20;99.90;;;;;;5046610;28;20029;-53
2023/05/17 06:53:51;;;;;;;7.78;0.98;;;14.20;99.90;;;;;;5035255;28;20072;-53
2023/05/17 06:56:19;;;;;;;5.05;0.98;;;14.20;99.90;;;;;;5047267;28;20532;-50
2023/05/17 06:58:46;;;;;;;6.43;1.30;;;14.10;99.90;;;;;;5040455;28;20032;-59
2023/05/17 07:01:14;;;;;;;4.72;0.93;;;14.00;99.90;;;;;;5041762;28;20048;-59
2023/05/17 07:03:42;;;;;;;3.83;1.15;;;13.90;99.90;;;;;;5038096;28;20057;-53
2023/05/17 07:06:09;;;;;;;4.07;0.82;;;13.80;99.90;;;;;;5040775;28;20029;-58
2023/05/17 07:08:37;;;;;;;2.08;0.70;;;13.70;99.90;;;;;;5032939;28;20028;-59
2023/05/17 07:11:04;;;;;;;4.13;1.40;;;13.60;99.90;;;;;;5047033;28;20090;-58
2023/05/17 07:13:32;;;;;;;4.85;0.80;;;13.50;99.90;;;;;;5048241;28;20120;-59
2023/05/17 07:15:59;;;;;;;4.65;0.70;;;13.30;99.90;;;;;;5043112;28;20027;-58
2023/05/17 07:18:27;;;;;;;5.05;1.13;;;13.30;99.90;;;;;;5016119;28;20025;-58
2023/05/17 07:20:54;;;;;;;5.47;0.85;;;13.20;99.90;;;;;;5040181;28;20029;-60
2023/05/17 07:23:22;;;;;;;5.28;1.52;;;13.10;99.90;;;;;;5045188;28;20030;-58
2023/05/17 07:25:50;;;;;;;2.15;0.60;;;13.00;99.90;;;;;;5036890;28;20447;-58
2023/05/17 07:28:17;;;;;;;4.90;0.93;;;12.90;99.90;;;;;;5015461;28;20030;-58
2023/05/17 07:30:44;;;;;;;6.38;0.93;;;12.70;99.90;;;;;;5043291;28;20021;-59
2023/05/17 07:33:12;;;;;;;7.80;1.08;;;12.60;99.90;;;;;;5048676;28;20033;-58
2023/05/17 07:35:39;;;;;;;6.85;0.90;;;12.50;99.90;;;;;;5046955;28;20502;-56
2023/05/17 07:38:09;;;;;;;4.35;1.40;;;12.40;99.90;;;;;;5035873;28;20030;-57
2023/05/17 07:40:37;;;;;;;3.63;0.65;;;12.40;99.90;;;;;;5039999;28;20083;-57
2023/05/17 07:43:04;;;;;;;7.95;1.25;;;12.50;99.90;;;;;;5047155;28;20101;-56
2023/05/17 07:45:32;;;;;;;5.35;1.27;;;12.50;99.90;;;;;;5040115;28;20079;-55
2023/05/17 07:47:59;;;;;;;3.13;0.98;;;12.50;99.90;;;;;;5044178;28;20482;-58
2023/05/17 07:50:27;;;;;;;9.90;1.05;;;12.50;99.90;;;;;;5044793;28;20041;-59
2023/05/17 07:52:55;;;;;;;4.93;0.50;;;12.40;99.90;;;;;;5037173;28;20108;-59
2023/05/17 07:55:22;;;;;;;4.60;0.75;;;12.40;99.90;;;;;;5046372;28;20056;-59
2023/05/17 07:57:51;;;;;;;2.75;0.70;;;12.30;99.90;;;;;;5028414;28;20370;-55
2023/05/17 08:00:19;;;;;;;4.75;1.33;;;12.30;99.90;;;;;;5040611;28;20390;-57
2023/05/17 08:02:46;;;;;;;5.30;0.90;;;12.30;99.90;;;;;;5038442;28;20453;-57
2023/05/17 08:05:14;;;;;;;5.70;1.00;;;12.30;99.90;;;;;;5018671;28;20034;-58
2023/05/17 08:07:42;;;;;;;4.28;0.95;;;12.30;99.90;;;;;;5039590;28;20037;-58
2023/05/17 08:10:10;;;;;;;3.20;0.98;;;12.30;99.90;;;;;;5032014;28;20025;-58
2023/05/17 08:12:37;;;;;;;4.68;0.85;;;12.20;99.90;;;;;;5041134;28;20040;-56
2023/05/17 08:15:05;;;;;;;4.78;1.13;;;12.30;99.90;;;;;;5034759;28;20398;-57
2023/05/17 08:17:33;;;;;;;2.35;0.80;;;12.30;99.90;;;;;;5031558;28;20025;-57
2023/05/17 08:20:00;;;;;;;5.35;0.98;;;12.30;99.90;;;;;;5042857;28;20786;-58
2023/05/17 08:22:27;;;;;;;4.72;0.90;;;12.30;99.90;;;;;;5042223;28;20139;-59
2023/05/17 08:24:56;;;;;;;3.75;0.90;;;12.30;99.90;;;;;;5037723;28;20033;-60
2023/05/17 08:27:25;;;;;;;6.57;1.02;;;12.30;99.90;;;;;;5038156;28;20092;-59
2023/05/17 08:29:54;;;;;;;2.25;1.00;;;12.30;99.90;;;;;;5040406;28;20044;-58
2023/05/17 08:32:22;;;;;;;4.22;0.90;;;12.40;99.90;;;;;;5034345;28;20021;-54
2023/05/17 08:34:50;;;;;;;5.95;1.50;;;12.30;99.90;;;;;;5035603;28;20520;-57
2023/05/17 08:37:18;;;;;;;4.35;1.08;;;12.30;99.90;;;;;;5036206;28;20033;-57
2023/05/17 08:39:46;;;;;;;3.38;0.98;;;12.30;99.90;;;;;;5043224;28;20033;-56
2023/05/17 08:42:19;;;;;;;3.42;0.70;;;12.30;99.90;;;;;;5020364;28;20021;-57
2023/05/17 08:44:47;;;;;;;4.82;1.17;;;12.30;99.90;;;;;;5042095;28;20025;-57
2023/05/17 08:47:28;;;;;;;6.65;1.30;;;12.20;99.90;;;;;;5038768;28;20029;-59
2023/05/17 08:49:59;;;;;;;6.57;1.50;;;12.10;99.90;;;;;;5042950;28;20045;-59
2023/05/17 08:52:31;;;;;;;5.90;1.40;;;12.10;99.90;;;;;;5037450;28;20108;-60
2023/05/17 08:55:04;;;;;;;7.38;2.60;;;12.10;99.90;;;;;;5041477;28;20119;-57
2023/05/17 08:57:37;;;;;;;2.13;1.00;;;12.10;99.90;;;;;;5041089;28;20075;-58
2023/05/17 09:00:08;;;;;;;4.43;1.00;;;12.10;99.90;;;;;;5042973;28;20064;-59
2023/05/17 09:02:35;;;;;;;9.82;2.45;;;12.00;99.90;;;;;;5040201;28;20017;-58
2023/05/17 09:05:04;;;;;;;5.05;1.27;;;11.90;99.90;;;;;;5017241;28;20041;-60
2023/05/17 09:07:31;;;;;;;3.58;0.93;;;11.80;99.90;;;;;;5041329;28;20227;-60
2023/05/17 09:09:59;;;;;;;4.57;1.17;;;11.70;99.90;;;;;;5033012;28;20033;-58
2023/05/17 09:12:26;;;;;;;5.95;1.50;;;11.70;99.90;;;;;;5039469;28;20033;-57
2023/05/17 09:14:54;;;;;;;4.32;1.52;;;11.50;99.90;;;;;;5039197;28;20043;-59
2023/05/17 09:17:22;;;;;;;4.32;0.85;;;11.40;99.90;;;;;;5028435;28;20033;-59
2023/05/17 09:19:50;;;;;;;11.25;1.45;;;11.40;99.90;;;;;;5040336;28;20143;-59
2023/05/17 09:22:21;;;;;;;6.47;0.80;;;11.30;99.90;;;;;;5022396;28;20064;-59
2023/05/17 09:24:50;;;;;;;2.78;0.90;;;11.30;99.90;;;;;;5036845;28;20030;-57
2023/05/17 09:27:20;;;;;;;3.35;0.90;;;11.20;99.90;;;;;;5030835;28;20033;-56
2023/05/17 09:29:47;;;;;;;3.22;0.90;;;11.10;99.90;;;;;;5038198;28;20051;-59
2023/05/17 09:32:23;;;;;;;3.65;1.05;;;11.10;99.90;;;;;;5037020;28;20021;-59
2023/05/17 09:34:51;;;;;;;6.45;1.10;;;11.20;99.90;;;;;;5021080;28;20413;-58
2023/05/17 09:37:20;;;;;;;2.85;1.08;;;11.10;99.90;;;;;;5038738;28;20029;-58
2023/05/17 09:39:48;;;;;;;5.20;1.00;;;11.10;99.90;;;;;;5042404;28;20033;-59
2023/05/17 09:42:16;;;;;;;3.78;0.95;;;11.10;99.90;;;;;;5031739;28;20029;-56
2023/05/17 09:44:49;;;;;;;4.18;0.90;;;11.10;99.90;;;;;;5038423;28;20486;-57
2023/05/17 09:47:32;;;;;;;3.50;0.82;;;11.10;99.90;;;;;;5042503;28;20155;-59
2023/05/17 09:50:05;;;;;;;5.35;1.13;;;11.00;99.90;;;;;;5035216;28;20041;-59
2023/05/17 09:52:36;;;;;;;2.58;1.05;;;11.00;99.90;;;;;;5040063;28;20025;-59
2023/05/17 09:55:03;;;;;;;3.25;0.95;;;10.90;99.90;;;;;;5028094;28;20525;-60
2023/05/17 09:57:38;;;;;;;8.95;2.22;;;10.90;99.90;;;;;;5040216;28;20100;-58
2023/05/17 10:00:11;;;;;;;3.10;0.95;;;10.90;99.90;;;;;;5042827;28;20033;-56
2023/05/17 10:02:42;;;;;;;6.65;1.05;;;10.90;99.90;;;;;;5060343;28;20028;-59
2023/05/17 10:05:11;;;;;;;4.78;0.77;;;10.90;99.90;;;;;;5044965;28;20032;-59
2023/05/17 10:07:41;;;;;;;4.05;0.85;;;10.90;99.90;;;;;;5037464;28;20025;-56
2023/05/17 10:10:09;;;;;;;7.70;0.70;;;10.90;99.90;;;;;;5041008;28;20079;-57
2023/05/17 10:12:39;;;;;;;9.63;1.58;;;10.90;99.90;;;;;;5032702;28;20021;-57
2023/05/17 10:15:08;;;;;;;3.92;1.08;;;10.90;99.90;;;;;;5046342;28;20036;-57
2023/05/17 10:17:37;;;;;;;7.45;1.13;;;10.80;99.90;;;;;;5037296;28;20029;-58
2023/05/17 10:20:07;;;;;;;3.38;0.57;;;10.80;99.90;;;;;;5043338;28;20029;-57
2023/05/17 10:22:36;;;;;;;4.15;0.98;;;10.70;99.90;;;;;;5039121;28;20029;-56
2023/05/17 10:25:04;;;;;;;8.75;0.98;;;10.70;99.90;;;;;;5042532;28;20037;-57
2023/05/17 10:27:32;;;;;;;3.75;1.25;;;10.70;99.90;;;;;;5042388;28;20025;-58
2023/05/17 10:30:00;;;;;;;9.57;1.05;;;10.70;99.90;;;;;;5035309;28;20660;-56
2023/05/17 10:32:29;;;;;;;2.78;0.90;;;10.70;99.90;;;;;;5032091;28;20406;-55
2023/05/17 10:34:57;;;;;;;5.18;0.95;;;10.50;99.90;;;;;;5040085;28;20035;-58
2023/05/17 10:37:25;;;;;;;3.10;1.02;;;10.50;99.90;;;;;;5046249;28;20543;-55
2023/05/17 10:39:55;;;;;;;4.80;1.05;;;10.50;99.90;;;;;;5050275;28;20044;-56
2023/05/17 10:42:23;;;;;;;6.80;1.00;;;10.50;99.90;;;;;;5029757;28;20109;-56
2023/05/17 10:44:53;;;;;;;4.97;0.80;;;10.50;99.90;;;;;;5019719;28;20428;-58
2023/05/17 10:47:21;;;;;;;5.72;1.55;;;10.50;99.90;;;;;;5028056;28;20036;-58
2023/05/17 10:49:50;;;;;;;2.30;0.82;;;10.40;99.90;;;;;;5027557;28;20045;-58
2023/05/17 10:52:22;;;;;;;4.90;1.00;;;10.40;99.90;;;;;;5021004;28;20029;-58
2023/05/17 10:54:51;;;;;;;3.42;0.82;;;10.40;99.90;;;;;;5041819;28;20417;-58
2023/05/17 10:57:38;;;;;;;3.92;0.98;;;10.30;99.90;;;;;;5042014;28;20026;-58
2023/05/17 11:00:09;;;;;;;4.38;0.80;;;10.30;99.90;;;;;;5039324;28;20025;-56
2023/05/17 11:02:44;;;;;;;3.10;1.15;;;10.30;99.90;;;;;;5044459;28;20107;-57
2023/05/17 11:05:23;;;;;;;4.43;0.85;;;10.30;99.90;;;;;;5037697;28;20037;-56
2023/05/17 11:07:51;;;;;;;4.28;1.10;;;10.20;99.90;;;;;;5031679;28;20036;-57
2023/05/17 11:10:18;;;;;;;5.05;2.03;;;10.20;99.90;;;;;;5024308;28;20033;-57
2023/05/17 11:12:52;;;;;;;8.20;1.10;;;10.20;99.90;;;;;;5024259;28;20094;-58
2023/05/17 11:15:27;;;;;;;5.07;0.90;;;10.20;99.90;;;;;;5028015;28;20029;-57
2023/05/17 11:17:57;;;;;;;5.85;0.90;;;10.20;99.90;;;;;;5047555;28;20498;-57
2023/05/17 11:20:27;;;;;;;4.45;1.08;;;10.20;99.90;;;;;;5041687;28;20052;-54
2023/05/17 11:23:15;;;;;;;2.83;1.02;;;10.20;99.90;;;;;;5020177;28;20029;-57
2023/05/17 11:25:43;;;;;;;4.63;0.80;;;10.20;99.90;;;;;;5044766;28;20024;-58
2023/05/17 11:28:21;;;;;;;4.25;1.15;;;10.30;99.90;;;;;;5024572;28;20091;-61
2023/05/17 11:30:52;;;;;;;12.73;1.20;;;10.20;99.90;;;;;;5042086;28;20032;-59
2023/05/17 11:33:36;;;;;;;1.70;0.70;;;10.30;99.90;;;;;;5041604;28;20057;-58
2023/05/17 11:36:20;;;;;;;6.20;0.95;;;10.30;99.90;;;;;;5030789;28;20036;-57
2023/05/17 11:39:12;;;;;;;4.63;2.20;;;10.20;99.90;;;;;;5046821;28;20025;-58
2023/05/17 11:42:00;;;;;;;5.95;1.20;;;10.20;99.90;;;;;;5046710;28;20033;-58
2023/05/17 11:44:33;;;;;;;7.47;1.20;;;10.20;99.90;;;;;;5029036;28;20035;-58
2023/05/17 11:47:10;;;;;;;5.20;1.05;;;10.10;99.90;;;;;;5045482;28;20017;-59
2023/05/17 11:49:38;;;;;;;2.95;0.98;;;10.00;99.90;;;;;;5046116;28;20049;-59
2023/05/17 11:52:07;;;;;;;1.27;0.70;;;10.00;99.90;;;;;;5049665;28;20037;-59
2023/05/17 11:54:37;;;;;;;6.63;1.00;;;10.00;99.90;;;;;;5028951;28;20037;-58
2023/05/17 11:57:06;;;;;;;5.05;1.13;;;9.90;99.90;;;;;;5031304;28;20056;-59
2023/05/17 11:59:39;;;;;;;1.70;0.73;;;9.90;99.90;;;;;;5046916;28;20036;-57
2023/05/17 12:02:07;;;;;;;6.85;0.90;;;9.90;99.90;;;;;;5044643;28;20032;-58
2023/05/17 12:04:38;;;;;;;5.07;0.75;;;9.90;99.90;;;;;;5048869;28;20512;-57
2023/05/17 12:07:11;;;;;;;4.22;1.10;;;9.90;99.90;;;;;;5020296;28;20028;-57
2023/05/17 12:09:39;;;;;;;5.63;1.08;;;9.90;99.90;;;;;;5026757;28;20099;-58
2023/05/17 12:12:07;;;;;;;3.50;0.75;;;9.90;99.90;;;;;;5016026;28;20025;-57
2023/05/17 12:14:35;;;;;;;4.63;0.82;;;9.90;99.90;;;;;;5047439;28;20033;-58
2023/05/17 12:17:07;;;;;;;3.47;0.77;;;10.00;99.90;;;;;;5027766;28;20083;-58
2023/05/17 12:19:34;;;;;;;2.92;0.88;;;9.90;99.90;;;;;;5045493;28;20021;-58
2023/05/17 12:22:11;;;;;;;3.35;0.63;;;9.90;99.90;;;;;;5038666;28;20040;-58
2023/05/17 12:24:39;;;;;;;3.03;0.82;;;9.90;99.90;;;;;;5044454;28;20079;-56
2023/05/17 12:27:07;;;;;;;3.95;1.00;;;9.80;99.90;;;;;;5039871;28;20017;-58
2023/05/17 12:29:35;;;;;;;6.10;1.15;;;9.80;99.90;;;;;;5021295;28;20044;-58
2023/05/17 12:32:03;;;;;;;2.90;0.80;;;9.80;99.90;;;;;;5040531;28;20021;-58
2023/05/17 12:34:31;;;;;;;5.82;0.90;;;9.70;99.90;;;;;;5043474;28;20040;-57
2023/05/17 12:36:59;;;;;;;4.38;1.58;;;9.70;99.90;;;;;;5039454;28;20363;-59
2023/05/17 12:39:26;;;;;;;2.28;0.60;;;9.70;99.90;;;;;;5019300;28;20029;-56
2023/05/17 12:41:54;;;;;;;2.92;0.60;;;9.70;99.90;;;;;;5040090;28;20040;-58
2023/05/17 12:44:22;;;;;;;1.73;1.20;;;9.60;99.90;;;;;;5038209;28;20025;-57
2023/05/17 12:46:52;;;;;;;3.15;1.38;;;9.60;99.90;;;;;;5032833;28;20129;-57
2023/05/17 12:49:20;;;;;;;1.95;0.63;;;9.60;99.90;;;;;;5041517;28;20065;-58
2023/05/17 12:51:48;;;;;;;4.90;1.98;;;9.60;99.90;;;;;;5043235;28;20481;-57
2023/05/17 12:54:39;;;;;;;4.70;0.80;;;9.70;99.90;;;;;;5035858;28;20049;-59
2023/05/17 12:57:14;;;;;;;2.78;0.70;;;9.70;99.90;;;;;;5043495;28;20069;-58
2023/05/17 12:59:49;;;;;;;4.28;0.80;;;9.60;99.90;;;;;;5018407;28;20200;-58